Carmel-by-the-Sea, CA (93921)

1:23 AM PDT on April 18, 2015 (GMT -0700)
Downtown Carmel | | Change Station
CLOSE
Current Station
Personal Weather Station
Location: Carmel-by-the-Sea, CA
Elevation: 230 ft
Nearby Weather Stations

Elev 230 ft 36.55 °N, 121.92 °W | Updated 9 seconds ago

Overcast
Overcast
44.9 °F
Feels Like 45 °F
N
0.0
Wind Variable Wind from NE
Gusts 1.0 mph

Today
High -- | Low -- °F
--% Chance of Precip.
Yesterday
High -- | Low -- °F
Precip. -- in
6:30 AM 7:44 PM
Waning Crescent, 0% visible
Pressure 30.12 in
Visibility 6.0 miles
Clouds Overcast 500 ft
Windchill 45 °F
Dew Point 44 °F
Humidity 96%
Rainfall 0.00 in
Snow Depth Not available.
UV 0 out of 12
Pollen 8.80 out of 12
Air Quality Not available.
Flu Activity Sporadic
METAR KMRY 180754Z AUTO 00000KT 6SM BR OVC005 10/08 A3008 RMK AO2 SLP199 T01000083 402220089

More Conditions Fewer Conditions

Pressure 30.12 in
Visibility 6.0 miles
Clouds Overcast 500 ft
Windchill 45 °F
Dew Point 44 °F
Humidity 96%
Rainfall 0.00 in
Snow Depth Not available.
UV 0 out of 12
Pollen 8.80 out of 12
Air Quality Not available.
Flu Activity Sporadic
METAR KMRY 180754Z AUTO 00000KT 6SM BR OVC005 10/08 A3008 RMK AO2 SLP199 T01000083 402220089

More Conditions Fewer Conditions

10-Day Weather Forecast

Almanac

Astronomy

Apr. 18, 2015 Rise Set
Actual Time
Civil Twilight
Nautical Twilight
Astronomical Twilight
Moon
Length of Visible Light
Length of Day
Tomorrow will be .
, % of the Moon is Illuminated

Today's Extremes

State Highs State Lows

Community

WunderPhotos

Upload Photos

1,814,345 photos uploaded!

WunderBlogs® & News

Nearby

Air Quality

  Air Quality AQ Index Pollutant
Not available.

Snow Depth

Station Depth Elevation

Earthquake Activity

City Distance Mag. Time & Date
Minimum magnitude displayed is 2.5.

Coastal Water Temperatures

Place Temperature

Stations

Nearby Weather Stations

Station Location Temp. Windchill Dew Point Humidity Wind Precip. Elev Updated Type